Terminal Aerodrome Forecast
Issued by NWS Cleveland, OH

Home | Current Version | Previous Version | Graphics & Text | Print | Product List | Glossary Off
Versions: 1 2 3 4 5 6 7 8 9 10 11 12 13 14 15 16 17 18 19 20 21 22 23 24 25 26 27 28 29 30 31 32 33

700
FTUS41 KCLE 230930 AAC
TAFCLE
TAF AMD
KCLE 230930Z 2310/2412 08007KT 1 1/2SM BR OVC004
     FM231200 15009KT 2SM -RA OVC004
     FM231300 15012KT 5SM -RA BR OVC007
     FM231700 20012KT P6SM -RA OVC007
     FM231900 22012KT P6SM OVC007
     FM240800 32005KT P6SM OVC020=

USA.gov is the U.S. government's official web portal to all federal, state and local government web resources and services.